sensor_id;sensor_type;location;lat;lon;timestamp;P1;durP1;ratioP1;P2;durP2;ratioP2
43504;SDS011;29098;48.184;16.298;2023-08-31T00:02:00;3.25;;;1.83;;
43504;SDS011;29098;48.184;16.298;2023-08-31T00:04:26;4.95;;;2.10;;
43504;SDS011;29098;48.184;16.298;2023-08-31T00:06:51;4.25;;;2.03;;
43504;SDS011;29098;48.184;16.298;2023-08-31T00:09:17;3.63;;;2.08;;
43504;SDS011;29098;48.184;16.298;2023-08-31T00:11:44;5.00;;;2.30;;
43504;SDS011;29098;48.184;16.298;2023-08-31T00:14:10;3.15;;;2.03;;
43504;SDS011;29098;48.184;16.298;2023-08-31T00:16:36;3.28;;;2.05;;
43504;SDS011;29098;48.184;16.298;2023-08-31T00:19:02;4.50;;;2.05;;
43504;SDS011;29098;48.184;16.298;2023-08-31T00:21:28;3.50;;;2.10;;
43504;SDS011;29098;48.184;16.298;2023-08-31T00:23:55;3.00;;;1.98;;
43504;SDS011;29098;48.184;16.298;2023-08-31T00:26:21;4.38;;;2.38;;
43504;SDS011;29098;48.184;16.298;2023-08-31T00:28:46;3.63;;;1.90;;
43504;SDS011;29098;48.184;16.298;2023-08-31T00:31:12;3.22;;;2.17;;
43504;SDS011;29098;48.184;16.298;2023-08-31T00:33:37;5.65;;;2.20;;
43504;SDS011;29098;48.184;16.298;2023-08-31T00:36:03;3.35;;;2.10;;
43504;SDS011;29098;48.184;16.298;2023-08-31T00:38:30;2.97;;;1.92;;
43504;SDS011;29098;48.184;16.298;2023-08-31T00:40:56;3.30;;;1.80;;
43504;SDS011;29098;48.184;16.298;2023-08-31T00:43:22;5.97;;;2.35;;
43504;SDS011;29098;48.184;16.298;2023-08-31T00:45:50;3.40;;;2.25;;
43504;SDS011;29098;48.184;16.298;2023-08-31T00:48:21;3.63;;;2.20;;
43504;SDS011;29098;48.184;16.298;2023-08-31T00:50:47;5.65;;;2.20;;
43504;SDS011;29098;48.184;16.298;2023-08-31T00:53:14;4.22;;;2.00;;
43504;SDS011;29098;48.184;16.298;2023-08-31T00:55:40;3.35;;;2.22;;
43504;SDS011;29098;48.184;16.298;2023-08-31T00:58:07;4.15;;;2.55;;
43504;SDS011;29098;48.184;16.298;2023-08-31T01:00:36;5.15;;;1.80;;
43504;SDS011;29098;48.184;16.298;2023-08-31T01:03:12;4.70;;;2.00;;
43504;SDS011;29098;48.184;16.298;2023-08-31T01:08:48;3.33;;;2.30;;
43504;SDS011;29098;48.184;16.298;2023-08-31T01:14:18;3.08;;;2.13;;
43504;SDS011;29098;48.184;16.298;2023-08-31T01:16:48;3.53;;;2.08;;
43504;SDS011;29098;48.184;16.298;2023-08-31T01:22:05;3.58;;;2.08;;
43504;SDS011;29098;48.184;16.298;2023-08-31T01:24:36;4.05;;;2.70;;
43504;SDS011;29098;48.184;16.298;2023-08-31T01:27:03;4.35;;;2.30;;
43504;SDS011;29098;48.184;16.298;2023-08-31T01:29:30;3.63;;;2.35;;
43504;SDS011;29098;48.184;16.298;2023-08-31T01:31:56;5.60;;;2.75;;
43504;SDS011;29098;48.184;16.298;2023-08-31T01:34:21;5.07;;;2.70;;
43504;SDS011;29098;48.184;16.298;2023-08-31T01:36:48;4.53;;;2.47;;
43504;SDS011;29098;48.184;16.298;2023-08-31T01:39:21;3.67;;;2.17;;
43504;SDS011;29098;48.184;16.298;2023-08-31T01:42:08;4.07;;;2.58;;
43504;SDS011;29098;48.184;16.298;2023-08-31T01:44:38;3.22;;;2.30;;
43504;SDS011;29098;48.184;16.298;2023-08-31T01:47:06;4.50;;;2.67;;
43504;SDS011;29098;48.184;16.298;2023-08-31T01:49:38;3.47;;;2.03;;
43504;SDS011;29098;48.184;16.298;2023-08-31T01:52:05;4.63;;;2.80;;
43504;SDS011;29098;48.184;16.298;2023-08-31T01:54:31;4.05;;;2.33;;
43504;SDS011;29098;48.184;16.298;2023-08-31T01:56:57;4.28;;;2.83;;
43504;SDS011;29098;48.184;16.298;2023-08-31T01:59:23;5.25;;;2.70;;
43504;SDS011;29098;48.184;16.298;2023-08-31T02:01:49;5.25;;;2.75;;
43504;SDS011;29098;48.184;16.298;2023-08-31T02:04:14;5.55;;;2.92;;
43504;SDS011;29098;48.184;16.298;2023-08-31T02:06:40;4.03;;;2.58;;
43504;SDS011;29098;48.184;16.298;2023-08-31T02:09:05;5.07;;;2.83;;
43504;SDS011;29098;48.184;16.298;2023-08-31T02:11:31;6.38;;;2.70;;
43504;SDS011;29098;48.184;16.298;2023-08-31T02:14:03;4.47;;;2.92;;
43504;SDS011;29098;48.184;16.298;2023-08-31T02:16:29;6.10;;;3.20;;
43504;SDS011;29098;48.184;16.298;2023-08-31T02:18:55;6.03;;;2.83;;
43504;SDS011;29098;48.184;16.298;2023-08-31T02:21:24;4.15;;;2.60;;
43504;SDS011;29098;48.184;16.298;2023-08-31T02:23:49;4.22;;;2.65;;
43504;SDS011;29098;48.184;16.298;2023-08-31T02:26:15;4.05;;;2.67;;
43504;SDS011;29098;48.184;16.298;2023-08-31T02:28:41;4.63;;;2.70;;
43504;SDS011;29098;48.184;16.298;2023-08-31T02:31:06;4.00;;;2.70;;
43504;SDS011;29098;48.184;16.298;2023-08-31T02:33:32;5.35;;;2.75;;
43504;SDS011;29098;48.184;16.298;2023-08-31T02:35:58;4.32;;;3.08;;
43504;SDS011;29098;48.184;16.298;2023-08-31T02:38:23;5.28;;;3.22;;
43504;SDS011;29098;48.184;16.298;2023-08-31T02:40:49;4.75;;;3.03;;
43504;SDS011;29098;48.184;16.298;2023-08-31T02:43:15;3.72;;;2.35;;
43504;SDS011;29098;48.184;16.298;2023-08-31T02:45:40;3.65;;;2.50;;
43504;SDS011;29098;48.184;16.298;2023-08-31T02:48:06;4.45;;;2.90;;
43504;SDS011;29098;48.184;16.298;2023-08-31T02:50:32;3.65;;;2.60;;
43504;SDS011;29098;48.184;16.298;2023-08-31T02:52:59;4.57;;;2.67;;
43504;SDS011;29098;48.184;16.298;2023-08-31T02:55:24;4.88;;;2.60;;
43504;SDS011;29098;48.184;16.298;2023-08-31T02:57:50;4.65;;;2.70;;
43504;SDS011;29098;48.184;16.298;2023-08-31T03:00:16;4.80;;;2.70;;
43504;SDS011;29098;48.184;16.298;2023-08-31T03:02:42;4.85;;;2.65;;
43504;SDS011;29098;48.184;16.298;2023-08-31T03:05:08;4.95;;;2.60;;
43504;SDS011;29098;48.184;16.298;2023-08-31T03:07:34;3.85;;;2.58;;
43504;SDS011;29098;48.184;16.298;2023-08-31T03:10:00;5.22;;;2.85;;
43504;SDS011;29098;48.184;16.298;2023-08-31T03:12:25;4.95;;;2.67;;
43504;SDS011;29098;48.184;16.298;2023-08-31T03:14:51;3.83;;;2.58;;
43504;SDS011;29098;48.184;16.298;2023-08-31T03:17:17;4.13;;;2.40;;
43504;SDS011;29098;48.184;16.298;2023-08-31T03:19:42;4.75;;;2.88;;
43504;SDS011;29098;48.184;16.298;2023-08-31T03:22:08;4.35;;;2.90;;
43504;SDS011;29098;48.184;16.298;2023-08-31T03:24:33;4.85;;;2.67;;
43504;SDS011;29098;48.184;16.298;2023-08-31T03:26:59;4.47;;;3.10;;
43504;SDS011;29098;48.184;16.298;2023-08-31T03:29:25;7.10;;;2.83;;
43504;SDS011;29098;48.184;16.298;2023-08-31T03:31:50;3.90;;;2.53;;
43504;SDS011;29098;48.184;16.298;2023-08-31T03:34:16;5.78;;;2.88;;
43504;SDS011;29098;48.184;16.298;2023-08-31T03:36:41;4.43;;;3.00;;
43504;SDS011;29098;48.184;16.298;2023-08-31T03:39:07;4.95;;;2.63;;
43504;SDS011;29098;48.184;16.298;2023-08-31T03:41:32;4.05;;;2.67;;
43504;SDS011;29098;48.184;16.298;2023-08-31T03:44:00;3.67;;;2.35;;
43504;SDS011;29098;48.184;16.298;2023-08-31T03:46:26;4.68;;;2.80;;
43504;SDS011;29098;48.184;16.298;2023-08-31T03:48:52;4.05;;;2.50;;
43504;SDS011;29098;48.184;16.298;2023-08-31T03:51:17;3.78;;;2.85;;
43504;SDS011;29098;48.184;16.298;2023-08-31T03:53:43;4.47;;;2.50;;
43504;SDS011;29098;48.184;16.298;2023-08-31T03:56:10;4.07;;;2.42;;
43504;SDS011;29098;48.184;16.298;2023-08-31T03:58:35;5.22;;;2.22;;
43504;SDS011;29098;48.184;16.298;2023-08-31T04:01:01;6.10;;;2.83;;
43504;SDS011;29098;48.184;16.298;2023-08-31T04:03:27;3.90;;;2.88;;
43504;SDS011;29098;48.184;16.298;2023-08-31T04:05:55;4.40;;;2.67;;
43504;SDS011;29098;48.184;16.298;2023-08-31T04:08:21;4.18;;;2.45;;
43504;SDS011;29098;48.184;16.298;2023-08-31T04:10:47;4.07;;;2.53;;
43504;SDS011;29098;48.184;16.298;2023-08-31T04:13:12;4.65;;;2.47;;
43504;SDS011;29098;48.184;16.298;2023-08-31T04:15:38;4.38;;;2.55;;
43504;SDS011;29098;48.184;16.298;2023-08-31T04:18:04;3.80;;;2.45;;
43504;SDS011;29098;48.184;16.298;2023-08-31T04:20:30;4.32;;;2.58;;
43504;SDS011;29098;48.184;16.298;2023-08-31T04:22:55;4.25;;;2.63;;
43504;SDS011;29098;48.184;16.298;2023-08-31T04:25:21;5.65;;;2.75;;
43504;SDS011;29098;48.184;16.298;2023-08-31T04:27:46;4.43;;;2.63;;
43504;SDS011;29098;48.184;16.298;2023-08-31T04:30:12;4.13;;;2.70;;
43504;SDS011;29098;48.184;16.298;2023-08-31T04:32:37;5.05;;;2.70;;
43504;SDS011;29098;48.184;16.298;2023-08-31T04:35:03;4.65;;;2.80;;
43504;SDS011;29098;48.184;16.298;2023-08-31T04:37:30;6.65;;;2.72;;
43504;SDS011;29098;48.184;16.298;2023-08-31T04:39:57;5.82;;;3.97;;
43504;SDS011;29098;48.184;16.298;2023-08-31T04:42:23;5.45;;;3.42;;
43504;SDS011;29098;48.184;16.298;2023-08-31T04:44:49;4.68;;;3.00;;
43504;SDS011;29098;48.184;16.298;2023-08-31T04:47:15;4.45;;;2.90;;
43504;SDS011;29098;48.184;16.298;2023-08-31T04:49:40;4.53;;;2.58;;
43504;SDS011;29098;48.184;16.298;2023-08-31T04:52:06;3.20;;;2.50;;
43504;SDS011;29098;48.184;16.298;2023-08-31T04:54:32;3.92;;;2.42;;
43504;SDS011;29098;48.184;16.298;2023-08-31T04:56:57;4.20;;;2.70;;
43504;SDS011;29098;48.184;16.298;2023-08-31T04:59:23;4.43;;;2.53;;
43504;SDS011;29098;48.184;16.298;2023-08-31T05:01:48;5.97;;;2.42;;
43504;SDS011;29098;48.184;16.298;2023-08-31T05:04:14;5.90;;;2.70;;
43504;SDS011;29098;48.184;16.298;2023-08-31T05:06:40;4.57;;;3.15;;
43504;SDS011;29098;48.184;16.298;2023-08-31T05:09:05;4.00;;;2.67;;
43504;SDS011;29098;48.184;16.298;2023-08-31T05:11:31;3.70;;;2.45;;
43504;SDS011;29098;48.184;16.298;2023-08-31T05:13:57;4.10;;;2.50;;
43504;SDS011;29098;48.184;16.298;2023-08-31T05:16:22;4.25;;;2.42;;
43504;SDS011;29098;48.184;16.298;2023-08-31T05:18:48;2.92;;;1.90;;
43504;SDS011;29098;48.184;16.298;2023-08-31T05:21:14;4.70;;;2.60;;
43504;SDS011;29098;48.184;16.298;2023-08-31T05:23:40;4.38;;;2.75;;
43504;SDS011;29098;48.184;16.298;2023-08-31T05:26:06;4.20;;;2.30;;
43504;SDS011;29098;48.184;16.298;2023-08-31T05:28:31;4.38;;;2.20;;
43504;SDS011;29098;48.184;16.298;2023-08-31T05:30:57;4.63;;;2.78;;
43504;SDS011;29098;48.184;16.298;2023-08-31T05:33:24;5.75;;;2.60;;
43504;SDS011;29098;48.184;16.298;2023-08-31T05:35:54;7.60;;;3.40;;
43504;SDS011;29098;48.184;16.298;2023-08-31T05:38:19;4.10;;;2.10;;
43504;SDS011;29098;48.184;16.298;2023-08-31T05:40:45;5.68;;;2.40;;
43504;SDS011;29098;48.184;16.298;2023-08-31T05:43:14;3.60;;;1.98;;
43504;SDS011;29098;48.184;16.298;2023-08-31T05:45:41;4.68;;;2.50;;
43504;SDS011;29098;48.184;16.298;2023-08-31T05:48:07;5.32;;;2.20;;
43504;SDS011;29098;48.184;16.298;2023-08-31T05:50:33;4.47;;;2.15;;
43504;SDS011;29098;48.184;16.298;2023-08-31T05:53:01;4.20;;;2.08;;
43504;SDS011;29098;48.184;16.298;2023-08-31T05:55:27;3.30;;;2.00;;
43504;SDS011;29098;48.184;16.298;2023-08-31T05:57:52;3.28;;;2.00;;
43504;SDS011;29098;48.184;16.298;2023-08-31T06:00:18;3.92;;;1.92;;
43504;SDS011;29098;48.184;16.298;2023-08-31T06:02:44;3.58;;;2.13;;
43504;SDS011;29098;48.184;16.298;2023-08-31T06:05:12;3.33;;;2.15;;
43504;SDS011;29098;48.184;16.298;2023-08-31T06:07:38;4.00;;;2.13;;
43504;SDS011;29098;48.184;16.298;2023-08-31T06:10:05;3.50;;;2.00;;
43504;SDS011;29098;48.184;16.298;2023-08-31T06:12:32;7.38;;;2.15;;
43504;SDS011;29098;48.184;16.298;2023-08-31T06:14:58;3.80;;;2.10;;
43504;SDS011;29098;48.184;16.298;2023-08-31T06:17:25;4.13;;;2.13;;
43504;SDS011;29098;48.184;16.298;2023-08-31T06:19:51;3.22;;;1.75;;
43504;SDS011;29098;48.184;16.298;2023-08-31T06:22:16;6.40;;;2.25;;
43504;SDS011;29098;48.184;16.298;2023-08-31T06:24:43;3.40;;;2.25;;
43504;SDS011;29098;48.184;16.298;2023-08-31T06:27:11;5.10;;;2.25;;
43504;SDS011;29098;48.184;16.298;2023-08-31T06:29:37;3.58;;;2.00;;
43504;SDS011;29098;48.184;16.298;2023-08-31T06:32:03;3.47;;;2.00;;
43504;SDS011;29098;48.184;16.298;2023-08-31T06:34:29;4.15;;;2.10;;
43504;SDS011;29098;48.184;16.298;2023-08-31T06:36:56;3.55;;;2.20;;
43504;SDS011;29098;48.184;16.298;2023-08-31T06:39:23;5.53;;;2.17;;
43504;SDS011;29098;48.184;16.298;2023-08-31T06:41:49;4.72;;;2.30;;
43504;SDS011;29098;48.184;16.298;2023-08-31T06:44:14;3.55;;;2.10;;
43504;SDS011;29098;48.184;16.298;2023-08-31T06:46:40;3.72;;;2.10;;
43504;SDS011;29098;48.184;16.298;2023-08-31T06:49:05;3.50;;;2.00;;
43504;SDS011;29098;48.184;16.298;2023-08-31T06:51:32;3.42;;;1.90;;
43504;SDS011;29098;48.184;16.298;2023-08-31T06:53:58;3.40;;;2.00;;
43504;SDS011;29098;48.184;16.298;2023-08-31T06:56:33;3.50;;;2.28;;
43504;SDS011;29098;48.184;16.298;2023-08-31T06:58:59;5.45;;;2.30;;
43504;SDS011;29098;48.184;16.298;2023-08-31T07:01:24;3.55;;;1.52;;
43504;SDS011;29098;48.184;16.298;2023-08-31T07:03:50;3.40;;;1.90;;
43504;SDS011;29098;48.184;16.298;2023-08-31T07:06:16;3.42;;;1.65;;
43504;SDS011;29098;48.184;16.298;2023-08-31T07:08:42;3.47;;;2.17;;
43504;SDS011;29098;48.184;16.298;2023-08-31T07:11:10;3.15;;;1.67;;
43504;SDS011;29098;48.184;16.298;2023-08-31T07:13:36;5.10;;;1.90;;
43504;SDS011;29098;48.184;16.298;2023-08-31T07:16:02;3.80;;;2.10;;
43504;SDS011;29098;48.184;16.298;2023-08-31T07:18:27;2.95;;;1.95;;
43504;SDS011;29098;48.184;16.298;2023-08-31T07:20:53;3.08;;;1.95;;
43504;SDS011;29098;48.184;16.298;2023-08-31T07:23:18;4.38;;;2.00;;
43504;SDS011;29098;48.184;16.298;2023-08-31T07:25:44;4.25;;;2.17;;
43504;SDS011;29098;48.184;16.298;2023-08-31T07:28:09;2.55;;;1.60;;
43504;SDS011;29098;48.184;16.298;2023-08-31T07:30:35;2.95;;;1.80;;
43504;SDS011;29098;48.184;16.298;2023-08-31T07:33:02;4.93;;;1.88;;
43504;SDS011;29098;48.184;16.298;2023-08-31T07:35:29;3.17;;;1.83;;
43504;SDS011;29098;48.184;16.298;2023-08-31T07:37:55;4.20;;;2.00;;
43504;SDS011;29098;48.184;16.298;2023-08-31T07:40:21;3.25;;;1.90;;
43504;SDS011;29098;48.184;16.298;2023-08-31T07:42:46;2.72;;;1.67;;
43504;SDS011;29098;48.184;16.298;2023-08-31T07:45:12;3.97;;;2.13;;
43504;SDS011;29098;48.184;16.298;2023-08-31T07:47:37;12.48;;;3.85;;
43504;SDS011;29098;48.184;16.298;2023-08-31T07:50:03;3.33;;;2.20;;
43504;SDS011;29098;48.184;16.298;2023-08-31T07:52:29;4.63;;;2.17;;
43504;SDS011;29098;48.184;16.298;2023-08-31T07:54:55;4.57;;;2.10;;
43504;SDS011;29098;48.184;16.298;2023-08-31T07:57:20;4.57;;;2.20;;
43504;SDS011;29098;48.184;16.298;2023-08-31T07:59:47;5.50;;;2.42;;
43504;SDS011;29098;48.184;16.298;2023-08-31T08:02:12;3.95;;;2.30;;
43504;SDS011;29098;48.184;16.298;2023-08-31T08:04:38;3.40;;;1.85;;
43504;SDS011;29098;48.184;16.298;2023-08-31T08:07:03;3.10;;;1.90;;
43504;SDS011;29098;48.184;16.298;2023-08-31T08:09:29;4.43;;;2.38;;
43504;SDS011;29098;48.184;16.298;2023-08-31T08:11:55;3.72;;;2.05;;
43504;SDS011;29098;48.184;16.298;2023-08-31T08:14:21;4.30;;;2.13;;
43504;SDS011;29098;48.184;16.298;2023-08-31T08:16:46;3.33;;;2.00;;
43504;SDS011;29098;48.184;16.298;2023-08-31T08:19:12;3.70;;;1.88;;
43504;SDS011;29098;48.184;16.298;2023-08-31T08:21:38;5.38;;;2.33;;
43504;SDS011;29098;48.184;16.298;2023-08-31T08:24:03;3.40;;;2.15;;
43504;SDS011;29098;48.184;16.298;2023-08-31T08:26:29;6.53;;;2.17;;
43504;SDS011;29098;48.184;16.298;2023-08-31T08:28:54;7.60;;;2.55;;
43504;SDS011;29098;48.184;16.298;2023-08-31T08:31:20;3.80;;;2.08;;
43504;SDS011;29098;48.184;16.298;2023-08-31T08:33:45;4.03;;;2.53;;
43504;SDS011;29098;48.184;16.298;2023-08-31T08:36:11;2.92;;;2.00;;
43504;SDS011;29098;48.184;16.298;2023-08-31T08:38:36;4.85;;;1.80;;
43504;SDS011;29098;48.184;16.298;2023-08-31T08:41:05;3.15;;;1.85;;
43504;SDS011;29098;48.184;16.298;2023-08-31T08:43:32;4.10;;;2.03;;
43504;SDS011;29098;48.184;16.298;2023-08-31T08:46:00;5.28;;;2.05;;
43504;SDS011;29098;48.184;16.298;2023-08-31T08:48:31;4.15;;;1.80;;
43504;SDS011;29098;48.184;16.298;2023-08-31T08:50:59;3.22;;;1.83;;
43504;SDS011;29098;48.184;16.298;2023-08-31T08:53:25;4.15;;;1.63;;
43504;SDS011;29098;48.184;16.298;2023-08-31T08:55:51;3.70;;;1.70;;
43504;SDS011;29098;48.184;16.298;2023-08-31T08:58:16;3.35;;;1.67;;
43504;SDS011;29098;48.184;16.298;2023-08-31T09:00:42;3.05;;;1.73;;
43504;SDS011;29098;48.184;16.298;2023-08-31T09:03:08;4.78;;;1.80;;
43504;SDS011;29098;48.184;16.298;2023-08-31T09:05:34;2.78;;;1.55;;
43504;SDS011;29098;48.184;16.298;2023-08-31T09:08:03;2.70;;;1.67;;
43504;SDS011;29098;48.184;16.298;2023-08-31T09:10:35;3.97;;;1.60;;
43504;SDS011;29098;48.184;16.298;2023-08-31T09:13:05;3.60;;;1.55;;
43504;SDS011;29098;48.184;16.298;2023-08-31T09:18:15;2.42;;;1.20;;
43504;SDS011;29098;48.184;16.298;2023-08-31T09:20:42;2.33;;;1.13;;
43504;SDS011;29098;48.184;16.298;2023-08-31T09:23:09;3.75;;;1.52;;
43504;SDS011;29098;48.184;16.298;2023-08-31T09:25:40;4.35;;;1.50;;
43504;SDS011;29098;48.184;16.298;2023-08-31T09:28:08;3.08;;;1.63;;
43504;SDS011;29098;48.184;16.298;2023-08-31T09:30:37;3.05;;;1.40;;
43504;SDS011;29098;48.184;16.298;2023-08-31T09:33:09;3.80;;;1.65;;
43504;SDS011;29098;48.184;16.298;2023-08-31T09:35:57;3.15;;;1.63;;
43504;SDS011;29098;48.184;16.298;2023-08-31T09:38:25;2.95;;;1.33;;
43504;SDS011;29098;48.184;16.298;2023-08-31T09:40:51;2.65;;;1.33;;
43504;SDS011;29098;48.184;16.298;2023-08-31T09:43:20;4.43;;;2.00;;
43504;SDS011;29098;48.184;16.298;2023-08-31T09:45:46;2.33;;;1.30;;
43504;SDS011;29098;48.184;16.298;2023-08-31T09:48:13;2.10;;;1.25;;
43504;SDS011;29098;48.184;16.298;2023-08-31T09:50:40;3.10;;;1.35;;
43504;SDS011;29098;48.184;16.298;2023-08-31T09:53:13;3.72;;;1.25;;
43504;SDS011;29098;48.184;16.298;2023-08-31T09:55:41;3.13;;;1.63;;
43504;SDS011;29098;48.184;16.298;2023-08-31T09:58:08;3.33;;;1.17;;
43504;SDS011;29098;48.184;16.298;2023-08-31T10:00:36;2.55;;;1.25;;
43504;SDS011;29098;48.184;16.298;2023-08-31T10:03:03;2.63;;;1.40;;
43504;SDS011;29098;48.184;16.298;2023-08-31T10:05:30;2.75;;;1.20;;
43504;SDS011;29098;48.184;16.298;2023-08-31T10:07:59;2.40;;;1.10;;
43504;SDS011;29098;48.184;16.298;2023-08-31T10:10:26;3.13;;;1.33;;
43504;SDS011;29098;48.184;16.298;2023-08-31T10:12:53;3.47;;;1.30;;
43504;SDS011;29098;48.184;16.298;2023-08-31T10:15:19;4.25;;;1.05;;
43504;SDS011;29098;48.184;16.298;2023-08-31T10:17:45;10.10;;;2.38;;
43504;SDS011;29098;48.184;16.298;2023-08-31T10:20:12;2.70;;;1.20;;
43504;SDS011;29098;48.184;16.298;2023-08-31T10:22:40;2.50;;;1.33;;
43504;SDS011;29098;48.184;16.298;2023-08-31T10:25:06;8.88;;;1.50;;
43504;SDS011;29098;48.184;16.298;2023-08-31T10:27:36;6.25;;;1.42;;
43504;SDS011;29098;48.184;16.298;2023-08-31T10:40:41;1.98;;;1.10;;
43504;SDS011;29098;48.184;16.298;2023-08-31T10:43:16;2.83;;;1.60;;
43504;SDS011;29098;48.184;16.298;2023-08-31T10:48:11;3.33;;;1.52;;
43504;SDS011;29098;48.184;16.298;2023-08-31T10:50:43;4.05;;;1.40;;
43504;SDS011;29098;48.184;16.298;2023-08-31T10:53:12;3.88;;;1.40;;
43504;SDS011;29098;48.184;16.298;2023-08-31T10:55:51;2.47;;;1.40;;
43504;SDS011;29098;48.184;16.298;2023-08-31T10:58:17;2.53;;;1.27;;
43504;SDS011;29098;48.184;16.298;2023-08-31T11:00:50;3.10;;;1.50;;
43504;SDS011;29098;48.184;16.298;2023-08-31T11:03:17;2.25;;;1.25;;
43504;SDS011;29098;48.184;16.298;2023-08-31T11:05:52;3.90;;;1.77;;
43504;SDS011;29098;48.184;16.298;2023-08-31T11:08:24;4.88;;;1.50;;
43504;SDS011;29098;48.184;16.298;2023-08-31T11:10:51;2.20;;;1.00;;
43504;SDS011;29098;48.184;16.298;2023-08-31T11:13:21;3.58;;;1.63;;
43504;SDS011;29098;48.184;16.298;2023-08-31T11:15:48;3.38;;;1.58;;
43504;SDS011;29098;48.184;16.298;2023-08-31T11:18:14;4.03;;;1.20;;
43504;SDS011;29098;48.184;16.298;2023-08-31T11:20:42;3.58;;;1.38;;
43504;SDS011;29098;48.184;16.298;2023-08-31T11:23:08;2.45;;;1.52;;
43504;SDS011;29098;48.184;16.298;2023-08-31T11:25:34;3.08;;;1.45;;
43504;SDS011;29098;48.184;16.298;2023-08-31T11:28:02;2.30;;;1.30;;
43504;SDS011;29098;48.184;16.298;2023-08-31T11:30:36;2.55;;;1.35;;
43504;SDS011;29098;48.184;16.298;2023-08-31T11:33:08;3.55;;;1.35;;
43504;SDS011;29098;48.184;16.298;2023-08-31T11:35:36;4.13;;;1.63;;
43504;SDS011;29098;48.184;16.298;2023-08-31T11:38:08;4.50;;;1.80;;
43504;SDS011;29098;48.184;16.298;2023-08-31T11:40:35;3.53;;;1.40;;
43504;SDS011;29098;48.184;16.298;2023-08-31T11:43:00;3.17;;;1.73;;
43504;SDS011;29098;48.184;16.298;2023-08-31T11:45:28;3.35;;;1.42;;
43504;SDS011;29098;48.184;16.298;2023-08-31T11:47:55;2.30;;;1.20;;
43504;SDS011;29098;48.184;16.298;2023-08-31T11:50:21;5.38;;;1.40;;
43504;SDS011;29098;48.184;16.298;2023-08-31T11:52:48;3.10;;;1.52;;
43504;SDS011;29098;48.184;16.298;2023-08-31T11:55:14;5.05;;;1.60;;
43504;SDS011;29098;48.184;16.298;2023-08-31T11:57:51;5.18;;;1.88;;
43504;SDS011;29098;48.184;16.298;2023-08-31T12:00:20;2.38;;;1.27;;
43504;SDS011;29098;48.184;16.298;2023-08-31T12:02:59;2.97;;;1.70;;
43504;SDS011;29098;48.184;16.298;2023-08-31T12:05:26;4.95;;;1.38;;
43504;SDS011;29098;48.184;16.298;2023-08-31T12:07:56;3.20;;;1.52;;
43504;SDS011;29098;48.184;16.298;2023-08-31T12:10:23;2.92;;;1.35;;
43504;SDS011;29098;48.184;16.298;2023-08-31T12:12:50;2.55;;;1.48;;
43504;SDS011;29098;48.184;16.298;2023-08-31T12:15:18;4.88;;;1.40;;
43504;SDS011;29098;48.184;16.298;2023-08-31T12:17:43;2.92;;;1.35;;
43504;SDS011;29098;48.184;16.298;2023-08-31T12:20:11;2.60;;;1.30;;
43504;SDS011;29098;48.184;16.298;2023-08-31T12:22:37;3.10;;;1.42;;
43504;SDS011;29098;48.184;16.298;2023-08-31T12:25:03;2.67;;;1.15;;
43504;SDS011;29098;48.184;16.298;2023-08-31T12:27:29;2.53;;;1.30;;
43504;SDS011;29098;48.184;16.298;2023-08-31T12:29:55;3.58;;;1.70;;
43504;SDS011;29098;48.184;16.298;2023-08-31T12:32:22;2.67;;;1.40;;
43504;SDS011;29098;48.184;16.298;2023-08-31T12:34:48;2.40;;;1.15;;
43504;SDS011;29098;48.184;16.298;2023-08-31T12:37:13;2.15;;;1.30;;
43504;SDS011;29098;48.184;16.298;2023-08-31T12:39:39;2.20;;;1.27;;
43504;SDS011;29098;48.184;16.298;2023-08-31T12:42:07;3.30;;;1.50;;
43504;SDS011;29098;48.184;16.298;2023-08-31T12:44:32;2.85;;;1.00;;
43504;SDS011;29098;48.184;16.298;2023-08-31T12:46:58;4.32;;;1.63;;
43504;SDS011;29098;48.184;16.298;2023-08-31T12:49:23;4.22;;;1.70;;
43504;SDS011;29098;48.184;16.298;2023-08-31T12:51:49;2.80;;;1.40;;
43504;SDS011;29098;48.184;16.298;2023-08-31T12:54:15;2.47;;;1.40;;
43504;SDS011;29098;48.184;16.298;2023-08-31T12:56:41;4.05;;;1.70;;
43504;SDS011;29098;48.184;16.298;2023-08-31T12:59:06;3.15;;;1.40;;
43504;SDS011;29098;48.184;16.298;2023-08-31T13:01:32;4.50;;;1.80;;
43504;SDS011;29098;48.184;16.298;2023-08-31T13:03:58;5.40;;;1.50;;
43504;SDS011;29098;48.184;16.298;2023-08-31T13:06:23;2.67;;;1.35;;
43504;SDS011;29098;48.184;16.298;2023-08-31T13:08:50;3.38;;;1.60;;
43504;SDS011;29098;48.184;16.298;2023-08-31T13:11:15;2.40;;;1.20;;
43504;SDS011;29098;48.184;16.298;2023-08-31T13:13:42;3.45;;;1.67;;
43504;SDS011;29098;48.184;16.298;2023-08-31T13:16:07;4.70;;;1.52;;
43504;SDS011;29098;48.184;16.298;2023-08-31T13:18:34;2.63;;;1.40;;
43504;SDS011;29098;48.184;16.298;2023-08-31T13:21:00;3.67;;;1.75;;
43504;SDS011;29098;48.184;16.298;2023-08-31T13:23:26;5.60;;;1.83;;
43504;SDS011;29098;48.184;16.298;2023-08-31T13:25:52;2.88;;;1.50;;
43504;SDS011;29098;48.184;16.298;2023-08-31T13:28:17;3.70;;;1.50;;
43504;SDS011;29098;48.184;16.298;2023-08-31T13:30:43;7.25;;;1.80;;
43504;SDS011;29098;48.184;16.298;2023-08-31T13:33:09;3.08;;;1.55;;
43504;SDS011;29098;48.184;16.298;2023-08-31T13:35:34;2.80;;;1.30;;
43504;SDS011;29098;48.184;16.298;2023-08-31T13:38:00;3.72;;;1.55;;
43504;SDS011;29098;48.184;16.298;2023-08-31T13:40:27;3.40;;;1.45;;
43504;SDS011;29098;48.184;16.298;2023-08-31T13:42:54;3.28;;;1.40;;
43504;SDS011;29098;48.184;16.298;2023-08-31T13:45:30;4.28;;;1.83;;
43504;SDS011;29098;48.184;16.298;2023-08-31T13:47:56;2.63;;;1.30;;
43504;SDS011;29098;48.184;16.298;2023-08-31T13:50:22;4.97;;;1.38;;
43504;SDS011;29098;48.184;16.298;2023-08-31T13:52:48;2.83;;;1.48;;
43504;SDS011;29098;48.184;16.298;2023-08-31T13:55:13;3.15;;;1.30;;
43504;SDS011;29098;48.184;16.298;2023-08-31T13:57:41;3.13;;;1.30;;
43504;SDS011;29098;48.184;16.298;2023-08-31T14:00:08;5.35;;;1.80;;
43504;SDS011;29098;48.184;16.298;2023-08-31T14:02:35;6.35;;;3.13;;
43504;SDS011;29098;48.184;16.298;2023-08-31T14:05:01;2.60;;;1.25;;
43504;SDS011;29098;48.184;16.298;2023-08-31T14:07:27;4.70;;;1.65;;
43504;SDS011;29098;48.184;16.298;2023-08-31T14:09:53;3.50;;;1.73;;
43504;SDS011;29098;48.184;16.298;2023-08-31T14:12:18;2.42;;;1.30;;
43504;SDS011;29098;48.184;16.298;2023-08-31T14:14:45;2.55;;;1.25;;
43504;SDS011;29098;48.184;16.298;2023-08-31T14:17:11;2.85;;;1.23;;
43504;SDS011;29098;48.184;16.298;2023-08-31T14:19:37;3.35;;;1.70;;
43504;SDS011;29098;48.184;16.298;2023-08-31T14:22:04;3.67;;;1.40;;
43504;SDS011;29098;48.184;16.298;2023-08-31T14:24:32;2.38;;;1.27;;
43504;SDS011;29098;48.184;16.298;2023-08-31T14:27:00;4.60;;;2.33;;
43504;SDS011;29098;48.184;16.298;2023-08-31T14:29:26;3.60;;;1.33;;
43504;SDS011;29098;48.184;16.298;2023-08-31T14:31:51;2.92;;;1.48;;
43504;SDS011;29098;48.184;16.298;2023-08-31T14:34:19;2.50;;;1.33;;
43504;SDS011;29098;48.184;16.298;2023-08-31T14:36:44;3.72;;;1.50;;
43504;SDS011;29098;48.184;16.298;2023-08-31T14:39:10;3.15;;;1.70;;
43504;SDS011;29098;48.184;16.298;2023-08-31T14:41:35;3.03;;;1.60;;
43504;SDS011;29098;48.184;16.298;2023-08-31T14:44:01;4.05;;;1.38;;
43504;SDS011;29098;48.184;16.298;2023-08-31T14:46:28;3.13;;;1.60;;
43504;SDS011;29098;48.184;16.298;2023-08-31T14:48:54;3.22;;;1.70;;
43504;SDS011;29098;48.184;16.298;2023-08-31T14:51:19;3.85;;;1.67;;
43504;SDS011;29098;48.184;16.298;2023-08-31T14:53:45;3.28;;;1.80;;
43504;SDS011;29098;48.184;16.298;2023-08-31T14:56:10;4.03;;;1.40;;